Big Sur, CA (93920)

1:05 PM PDT on October 31, 2014 (GMT -0700)
Partington Ridge | Change Station
CLOSE
Current Station
Personal Weather Station
Location: Big Sur, CA
Elevation: 2087 ft
Nearby Weather Stations

Elev 2087 ft 36.20 °N, 121.70 °W | Updated 4 minutes ago

Overcast
Overcast
55.0 °F
Feels Like 55.0 °F
N
0.0
Wind Variable Wind from ESE

Today
High -- | Low -- °F
--% Chance of Precip.
Yesterday
High -- | Low -- °F
Precip. -- in
7:28 AM 6:11 PM
First Quarter, 58% visible
Pressure 29.88 in
Visibility 7.0 miles
Clouds Mostly Cloudy 7000 ft
Overcast 9000 ft
Dew Point 23 °F
Humidity 29%
Rainfall 0.05 in
Snow Depth Not available.
UV 2 out of 12
Pollen .50 out of 12
Air Quality Not available.
Flu Activity Not available.
METAR KMRY 311954Z 00000KT 7SM -RA BKN070 OVC090 17/14 A2985 RMK AO2 RAB1855 SLP118 P0004 T01670144

More Conditions Fewer Conditions

Pressure 29.88 in
Visibility 7.0 miles
Clouds Mostly Cloudy 7000 ft
Overcast 9000 ft
Dew Point 23 °F
Humidity 29%
Rainfall 0.05 in
Snow Depth Not available.
UV 2 out of 12
Pollen .50 out of 12
Air Quality Not available.
Flu Activity Not available.
METAR KMRY 311954Z 00000KT 7SM -RA BKN070 OVC090 17/14 A2985 RMK AO2 RAB1855 SLP118 P0004 T01670144

More Conditions Fewer Conditions

10-Day Weather Forecast

Almanac

Astronomy

Oct. 31, 2014 Rise Set
Actual Time
Civil Twilight
Nautical Twilight
Astronomical Twilight
Moon
Length of Visible Light
Length of Day
Tomorrow will be .
, % of the Moon is Illuminated

Today's Extremes

State Highs State Lows

Community

WunderPhotos

Upload Photos

1,766,717 photos uploaded!

WunderBlogs® & News

Nearby

Air Quality

  Air Quality AQ Index Pollutant
Not available.

Snow Depth

Station Depth Elevation

Earthquake Activity

City Distance Mag. Time & Date
Minimum magnitude displayed is 2.5.

Coastal Water Temperatures

Place Temperature

Nearby Weather Stations